sensor_id;sensor_type;location;lat;lon;timestamp;pressure;altitude;pressure_sealevel;temperature;humidity
75895;BME280;64573;50.328;15.014;2022-10-28T00:02:13;99870.03;;;10.86;90.51
75895;BME280;64573;50.328;15.014;2022-10-28T00:04:38;99851.09;;;10.87;90.63
75895;BME280;64573;50.328;15.014;2022-10-28T00:07:03;99845.75;;;10.87;90.67
75895;BME280;64573;50.328;15.014;2022-10-28T00:09:29;99853.09;;;10.85;90.24
75895;BME280;64573;50.328;15.014;2022-10-28T00:11:54;99864.16;;;10.82;90.87
75895;BME280;64573;50.328;15.014;2022-10-28T00:14:20;99875.38;;;10.77;90.58
75895;BME280;64573;50.328;15.014;2022-10-28T00:16:45;99874.22;;;10.80;90.50
75895;BME280;64573;50.328;15.014;2022-10-28T00:19:11;99873.38;;;10.80;90.83
75895;BME280;64573;50.328;15.014;2022-10-28T00:24:07;99874.31;;;10.70;90.54
75895;BME280;64573;50.328;15.014;2022-10-28T00:29:14;99894.78;;;10.71;90.70
75895;BME280;64573;50.328;15.014;2022-10-28T00:31:40;99898.63;;;10.69;90.59
75895;BME280;64573;50.328;15.014;2022-10-28T00:34:09;99885.75;;;10.72;90.44
75895;BME280;64573;50.328;15.014;2022-10-28T00:36:37;99886.91;;;10.70;90.38
75895;BME280;64573;50.328;15.014;2022-10-28T00:39:12;99881.19;;;10.65;90.53
75895;BME280;64573;50.328;15.014;2022-10-28T00:41:40;99886.19;;;10.60;90.66
75895;BME280;64573;50.328;15.014;2022-10-28T00:47:04;99882.50;;;10.61;90.68
75895;BME280;64573;50.328;15.014;2022-10-28T00:49:32;99879.13;;;10.59;90.82
75895;BME280;64573;50.328;15.014;2022-10-28T00:52:05;99876.75;;;10.56;90.96
75895;BME280;64573;50.328;15.014;2022-10-28T00:54:32;99871.06;;;10.51;91.20
75895;BME280;64573;50.328;15.014;2022-10-28T00:56:58;99874.56;;;10.51;91.25
75895;BME280;64573;50.328;15.014;2022-10-28T00:59:32;99872.72;;;10.52;91.10
75895;BME280;64573;50.328;15.014;2022-10-28T01:01:58;99862.13;;;10.50;91.40
75895;BME280;64573;50.328;15.014;2022-10-28T01:04:24;99850.75;;;10.48;90.93
75895;BME280;64573;50.328;15.014;2022-10-28T01:06:50;99864.94;;;10.40;90.90
75895;BME280;64573;50.328;15.014;2022-10-28T01:09:16;99865.47;;;10.44;91.05
75895;BME280;64573;50.328;15.014;2022-10-28T01:11:55;99866.16;;;10.46;91.12
75895;BME280;64573;50.328;15.014;2022-10-28T01:30:28;99852.16;;;10.34;91.28
75895;BME280;64573;50.328;15.014;2022-10-28T01:33:05;99849.03;;;10.39;91.61
75895;BME280;64573;50.328;15.014;2022-10-28T01:43:48;99828.19;;;10.33;91.15
75895;BME280;64573;50.328;15.014;2022-10-28T01:46:27;99842.78;;;10.30;91.64
75895;BME280;64573;50.328;15.014;2022-10-28T01:48:57;99856.47;;;10.27;91.56
75895;BME280;64573;50.328;15.014;2022-10-28T01:51:30;99853.34;;;10.32;91.33
75895;BME280;64573;50.328;15.014;2022-10-28T01:54:00;99857.53;;;10.34;91.61
75895;BME280;64573;50.328;15.014;2022-10-28T01:56:30;99869.19;;;10.25;91.71
75895;BME280;64573;50.328;15.014;2022-10-28T01:58:58;99856.81;;;10.24;91.47
75895;BME280;64573;50.328;15.014;2022-10-28T02:01:27;99866.53;;;10.25;91.38
75895;BME280;64573;50.328;15.014;2022-10-28T02:03:54;99866.72;;;10.14;91.95
75895;BME280;64573;50.328;15.014;2022-10-28T02:06:22;99859.19;;;10.09;91.91
75895;BME280;64573;50.328;15.014;2022-10-28T02:08:56;99866.38;;;10.09;91.58
75895;BME280;64573;50.328;15.014;2022-10-28T02:16:59;99857.84;;;9.87;92.30
75895;BME280;64573;50.328;15.014;2022-10-28T02:30:03;99819.13;;;9.82;92.50
75895;BME280;64573;50.328;15.014;2022-10-28T02:32:31;99817.50;;;9.89;92.29
75895;BME280;64573;50.328;15.014;2022-10-28T02:34:59;99831.78;;;9.98;92.53
75895;BME280;64573;50.328;15.014;2022-10-28T02:37:28;99823.97;;;10.04;92.29
75895;BME280;64573;50.328;15.014;2022-10-28T02:39:58;99817.38;;;9.99;91.88
75895;BME280;64573;50.328;15.014;2022-10-28T02:42:32;99820.38;;;9.95;92.25
75895;BME280;64573;50.328;15.014;2022-10-28T02:45:08;99821.41;;;9.94;92.45
75895;BME280;64573;50.328;15.014;2022-10-28T02:47:38;99829.06;;;9.89;92.45
75895;BME280;64573;50.328;15.014;2022-10-28T02:50:08;99825.84;;;9.86;91.95
75895;BME280;64573;50.328;15.014;2022-10-28T02:52:35;99830.50;;;9.84;92.46
75895;BME280;64573;50.328;15.014;2022-10-28T02:55:04;99838.66;;;9.74;92.08
75895;BME280;64573;50.328;15.014;2022-10-28T03:00:03;99847.28;;;9.68;92.53
75895;BME280;64573;50.328;15.014;2022-10-28T03:02:31;99852.97;;;9.65;92.51
75895;BME280;64573;50.328;15.014;2022-10-28T03:04:56;99851.97;;;9.66;92.21
75895;BME280;64573;50.328;15.014;2022-10-28T03:07:22;99847.38;;;9.58;92.45
75895;BME280;64573;50.328;15.014;2022-10-28T03:09:47;99845.22;;;9.62;92.55
75895;BME280;64573;50.328;15.014;2022-10-28T03:12:13;99842.72;;;9.60;92.36
75895;BME280;64573;50.328;15.014;2022-10-28T03:14:39;99852.13;;;9.64;92.71
75895;BME280;64573;50.328;15.014;2022-10-28T03:19:33;99859.63;;;9.43;92.35
75895;BME280;64573;50.328;15.014;2022-10-28T03:21:58;99855.03;;;9.35;92.99
75895;BME280;64573;50.328;15.014;2022-10-28T03:24:24;99852.31;;;9.18;92.70
75895;BME280;64573;50.328;15.014;2022-10-28T03:26:49;99849.50;;;9.19;92.83
75895;BME280;64573;50.328;15.014;2022-10-28T03:29:15;99843.09;;;9.30;92.43
75895;BME280;64573;50.328;15.014;2022-10-28T03:31:40;99831.84;;;9.44;92.38
75895;BME280;64573;50.328;15.014;2022-10-28T03:34:05;99831.84;;;9.44;92.90
75895;BME280;64573;50.328;15.014;2022-10-28T03:36:31;99824.22;;;9.49;92.54
75895;BME280;64573;50.328;15.014;2022-10-28T03:38:56;99826.97;;;9.57;92.69
75895;BME280;64573;50.328;15.014;2022-10-28T03:41:21;99828.03;;;9.47;92.80
75895;BME280;64573;50.328;15.014;2022-10-28T03:43:47;99831.59;;;9.55;92.76
75895;BME280;64573;50.328;15.014;2022-10-28T03:46:12;99833.00;;;9.59;92.65
75895;BME280;64573;50.328;15.014;2022-10-28T03:48:37;99824.50;;;9.64;92.59
75895;BME280;64573;50.328;15.014;2022-10-28T03:51:03;99826.47;;;9.62;92.97
75895;BME280;64573;50.328;15.014;2022-10-28T03:53:28;99829.63;;;9.57;93.00
75895;BME280;64573;50.328;15.014;2022-10-28T03:58:21;99825.13;;;9.58;92.71
75895;BME280;64573;50.328;15.014;2022-10-28T04:00:47;99820.66;;;9.49;92.76
75895;BME280;64573;50.328;15.014;2022-10-28T04:03:14;99836.50;;;9.60;92.74
75895;BME280;64573;50.328;15.014;2022-10-28T04:05:39;99847.59;;;9.47;92.38
75895;BME280;64573;50.328;15.014;2022-10-28T04:08:05;99847.44;;;9.49;92.31
75895;BME280;64573;50.328;15.014;2022-10-28T04:10:30;99835.59;;;9.51;93.23
75895;BME280;64573;50.328;15.014;2022-10-28T04:13:03;99834.44;;;9.54;92.63
75895;BME280;64573;50.328;15.014;2022-10-28T04:15:29;99834.28;;;9.55;92.60
75895;BME280;64573;50.328;15.014;2022-10-28T04:17:55;99827.41;;;9.53;92.78
75895;BME280;64573;50.328;15.014;2022-10-28T04:20:21;99815.88;;;9.52;92.90
75895;BME280;64573;50.328;15.014;2022-10-28T04:22:46;99820.38;;;9.52;92.53
75895;BME280;64573;50.328;15.014;2022-10-28T04:25:12;99822.22;;;9.51;92.85
75895;BME280;64573;50.328;15.014;2022-10-28T04:27:37;99826.50;;;9.44;92.57
75895;BME280;64573;50.328;15.014;2022-10-28T04:30:03;99821.22;;;9.52;92.87
75895;BME280;64573;50.328;15.014;2022-10-28T04:32:29;99814.63;;;9.47;92.56
75895;BME280;64573;50.328;15.014;2022-10-28T04:34:54;99814.63;;;9.47;92.51
75895;BME280;64573;50.328;15.014;2022-10-28T04:37:20;99818.38;;;9.54;92.71
75895;BME280;64573;50.328;15.014;2022-10-28T04:39:45;99826.72;;;9.51;92.53
75895;BME280;64573;50.328;15.014;2022-10-28T04:42:10;99819.00;;;9.48;92.40
75895;BME280;64573;50.328;15.014;2022-10-28T04:44:36;99818.53;;;9.52;92.46
75895;BME280;64573;50.328;15.014;2022-10-28T04:47:01;99808.50;;;9.54;92.21
75895;BME280;64573;50.328;15.014;2022-10-28T04:49:26;99800.78;;;9.51;92.67
75895;BME280;64573;50.328;15.014;2022-10-28T04:51:52;99818.88;;;9.49;93.21
75895;BME280;64573;50.328;15.014;2022-10-28T04:54:17;99814.78;;;9.45;92.55
75895;BME280;64573;50.328;15.014;2022-10-28T04:56:42;99823.22;;;9.50;92.57
75895;BME280;64573;50.328;15.014;2022-10-28T04:59:08;99806.38;;;9.40;92.98
75895;BME280;64573;50.328;15.014;2022-10-28T05:01:33;99815.16;;;9.32;93.10
75895;BME280;64573;50.328;15.014;2022-10-28T05:03:58;99821.00;;;9.28;92.90
75895;BME280;64573;50.328;15.014;2022-10-28T05:06:24;99820.88;;;9.20;92.58
75895;BME280;64573;50.328;15.014;2022-10-28T05:08:49;99832.47;;;9.20;92.88
75895;BME280;64573;50.328;15.014;2022-10-28T05:13:43;99817.84;;;9.32;93.05
75895;BME280;64573;50.328;15.014;2022-10-28T05:16:09;99820.00;;;9.29;92.76
75895;BME280;64573;50.328;15.014;2022-10-28T05:18:34;99804.63;;;9.31;93.17
75895;BME280;64573;50.328;15.014;2022-10-28T05:21:00;99809.38;;;9.37;93.18
75895;BME280;64573;50.328;15.014;2022-10-28T05:23:25;99819.69;;;9.32;93.17
75895;BME280;64573;50.328;15.014;2022-10-28T05:25:51;99804.31;;;9.34;93.08
75895;BME280;64573;50.328;15.014;2022-10-28T05:28:17;99789.72;;;9.28;93.27
75895;BME280;64573;50.328;15.014;2022-10-28T05:30:43;99791.16;;;9.23;93.13
75895;BME280;64573;50.328;15.014;2022-10-28T05:33:09;99792.06;;;9.31;92.64
75895;BME280;64573;50.328;15.014;2022-10-28T05:35:37;99799.09;;;9.32;93.56
75895;BME280;64573;50.328;15.014;2022-10-28T05:38:03;99793.53;;;9.26;93.23
75895;BME280;64573;50.328;15.014;2022-10-28T05:40:29;99803.88;;;9.21;92.84
75895;BME280;64573;50.328;15.014;2022-10-28T05:42:56;99800.47;;;9.19;93.02
75895;BME280;64573;50.328;15.014;2022-10-28T05:45:22;99805.38;;;9.23;93.47
75895;BME280;64573;50.328;15.014;2022-10-28T05:47:47;99814.56;;;9.21;93.08
75895;BME280;64573;50.328;15.014;2022-10-28T05:52:38;99830.22;;;9.16;93.59
75895;BME280;64573;50.328;15.014;2022-10-28T05:55:04;99848.06;;;9.25;93.16
75895;BME280;64573;50.328;15.014;2022-10-28T05:57:33;99841.34;;;9.21;93.63
75895;BME280;64573;50.328;15.014;2022-10-28T05:59:59;99842.41;;;9.28;93.70
75895;BME280;64573;50.328;15.014;2022-10-28T06:02:24;99850.28;;;9.29;93.69
75895;BME280;64573;50.328;15.014;2022-10-28T06:04:50;99842.41;;;9.28;93.22
75895;BME280;64573;50.328;15.014;2022-10-28T06:07:15;99837.59;;;9.31;93.03
75895;BME280;64573;50.328;15.014;2022-10-28T06:09:40;99832.22;;;9.31;93.90
75895;BME280;64573;50.328;15.014;2022-10-28T06:12:06;99832.22;;;9.31;93.91
75895;BME280;64573;50.328;15.014;2022-10-28T06:17:01;99830.94;;;9.35;93.88
75895;BME280;64573;50.328;15.014;2022-10-28T06:19:26;99822.91;;;9.35;93.70
75895;BME280;64573;50.328;15.014;2022-10-28T06:21:51;99828.09;;;9.37;93.44
75895;BME280;64573;50.328;15.014;2022-10-28T06:24:17;99822.59;;;9.38;93.43
75895;BME280;64573;50.328;15.014;2022-10-28T06:26:42;99829.19;;;9.44;93.23
75895;BME280;64573;50.328;15.014;2022-10-28T06:29:11;99839.41;;;9.49;93.29
75895;BME280;64573;50.328;15.014;2022-10-28T06:31:45;99838.44;;;9.50;93.03
75895;BME280;64573;50.328;15.014;2022-10-28T06:34:11;99847.84;;;9.54;92.77
75895;BME280;64573;50.328;15.014;2022-10-28T06:36:37;99843.53;;;9.61;92.89
75895;BME280;64573;50.328;15.014;2022-10-28T06:41:28;99845.44;;;9.68;92.68
75895;BME280;64573;50.328;15.014;2022-10-28T06:43:53;99845.28;;;9.70;92.65
75895;BME280;64573;50.328;15.014;2022-10-28T06:46:19;99847.06;;;9.79;92.53
75895;BME280;64573;50.328;15.014;2022-10-28T06:48:44;99850.09;;;9.84;92.10
75895;BME280;64573;50.328;15.014;2022-10-28T06:51:09;99848.97;;;9.87;92.02
75895;BME280;64573;50.328;15.014;2022-10-28T06:53:35;99854.31;;;9.87;91.99
75895;BME280;64573;50.328;15.014;2022-10-28T06:58:31;99861.03;;;9.91;91.69
75895;BME280;64573;50.328;15.014;2022-10-28T07:03:23;99845.66;;;9.93;91.76
75895;BME280;64573;50.328;15.014;2022-10-28T07:05:49;99849.88;;;9.95;91.37
75895;BME280;64573;50.328;15.014;2022-10-28T07:08:15;99866.47;;;9.99;91.39
75895;BME280;64573;50.328;15.014;2022-10-28T07:10:41;99872.38;;;10.03;91.47
75895;BME280;64573;50.328;15.014;2022-10-28T07:15:37;99857.72;;;10.41;90.23
75895;BME280;64573;50.328;15.014;2022-10-28T07:18:03;99865.44;;;10.36;89.56
75895;BME280;64573;50.328;15.014;2022-10-28T07:20:28;99867.84;;;10.47;89.11
75895;BME280;64573;50.328;15.014;2022-10-28T07:22:55;99874.44;;;10.61;89.23
75895;BME280;64573;50.328;15.014;2022-10-28T07:25:21;99860.13;;;10.44;88.93
75895;BME280;64573;50.328;15.014;2022-10-28T07:27:46;99878.88;;;10.44;88.88
75895;BME280;64573;50.328;15.014;2022-10-28T07:30:12;99882.13;;;10.56;89.14
75895;BME280;64573;50.328;15.014;2022-10-28T07:35:11;99879.69;;;11.13;87.52
75895;BME280;64573;50.328;15.014;2022-10-28T07:37:37;99876.38;;;11.27;85.75
75895;BME280;64573;50.328;15.014;2022-10-28T07:40:04;99889.13;;;11.17;86.21
75895;BME280;64573;50.328;15.014;2022-10-28T07:42:32;99896.75;;;11.38;86.25
75895;BME280;64573;50.328;15.014;2022-10-28T07:44:57;99904.84;;;11.54;85.32
75895;BME280;64573;50.328;15.014;2022-10-28T07:49:52;99902.66;;;11.66;85.19
75895;BME280;64573;50.328;15.014;2022-10-28T07:52:19;99907.09;;;11.91;83.83
75895;BME280;64573;50.328;15.014;2022-10-28T07:57:13;99909.22;;;12.69;81.55
75895;BME280;64573;50.328;15.014;2022-10-28T07:59:38;99911.84;;;12.85;80.31
75895;BME280;64573;50.328;15.014;2022-10-28T08:02:04;99913.78;;;13.08;78.80
75895;BME280;64573;50.328;15.014;2022-10-28T08:04:30;99906.44;;;13.41;78.76
75895;BME280;64573;50.328;15.014;2022-10-28T08:06:55;99909.56;;;13.52;78.05
75895;BME280;64573;50.328;15.014;2022-10-28T08:09:21;99914.25;;;13.28;79.26
75895;BME280;64573;50.328;15.014;2022-10-28T08:11:46;99907.94;;;13.43;78.66
75895;BME280;64573;50.328;15.014;2022-10-28T08:14:11;99896.53;;;13.64;77.09
75895;BME280;64573;50.328;15.014;2022-10-28T08:16:37;99885.22;;;13.38;77.23
75895;BME280;64573;50.328;15.014;2022-10-28T08:19:02;99907.81;;;13.91;76.28
75895;BME280;64573;50.328;15.014;2022-10-28T08:21:27;99904.84;;;14.00;75.04
75895;BME280;64573;50.328;15.014;2022-10-28T08:23:56;99899.91;;;14.50;73.83
75895;BME280;64573;50.328;15.014;2022-10-28T08:26:22;99894.97;;;14.83;72.52
75895;BME280;64573;50.328;15.014;2022-10-28T08:28:47;99879.50;;;14.77;72.30
75895;BME280;64573;50.328;15.014;2022-10-28T08:31:12;99868.06;;;14.89;72.39
75895;BME280;64573;50.328;15.014;2022-10-28T08:33:40;99868.97;;;14.97;71.33
75895;BME280;64573;50.328;15.014;2022-10-28T08:36:08;99883.53;;;14.96;71.38
75895;BME280;64573;50.328;15.014;2022-10-28T08:38:34;99897.50;;;15.35;70.35
75895;BME280;64573;50.328;15.014;2022-10-28T08:49:31;99882.06;;;15.80;69.28
75895;BME280;64573;50.328;15.014;2022-10-28T08:54:35;99889.25;;;16.72;65.74
75895;BME280;64573;50.328;15.014;2022-10-28T08:57:12;99887.50;;;16.64;66.14
75895;BME280;64573;50.328;15.014;2022-10-28T08:59:42;99889.66;;;16.41;65.72
75895;BME280;64573;50.328;15.014;2022-10-28T09:04:45;99895.56;;;17.20;63.36
75895;BME280;64573;50.328;15.014;2022-10-28T09:09:37;99877.28;;;16.60;65.41
75895;BME280;64573;50.328;15.014;2022-10-28T09:12:09;99895.13;;;16.75;65.05
75895;BME280;64573;50.328;15.014;2022-10-28T09:36:00;99903.28;;;16.05;66.94
75895;BME280;64573;50.328;15.014;2022-10-28T09:38:30;99910.38;;;16.55;65.08
75895;BME280;64573;50.328;15.014;2022-10-28T09:41:01;99913.91;;;16.55;64.61
75895;BME280;64573;50.328;15.014;2022-10-28T09:43:32;99910.72;;;17.56;62.87
75895;BME280;64573;50.328;15.014;2022-10-28T09:46:06;99903.13;;;17.99;61.11
75895;BME280;64573;50.328;15.014;2022-10-28T09:48:44;99901.25;;;18.39;60.10
75895;BME280;64573;50.328;15.014;2022-10-28T09:56:13;99889.44;;;17.59;61.57
75895;BME280;64573;50.328;15.014;2022-10-28T09:58:42;99892.34;;;17.51;62.98
75895;BME280;64573;50.328;15.014;2022-10-28T10:01:08;99893.53;;;17.83;62.01
75895;BME280;64573;50.328;15.014;2022-10-28T10:03:34;99902.91;;;17.26;63.91
75895;BME280;64573;50.328;15.014;2022-10-28T10:06:10;99901.38;;;16.48;66.47
75895;BME280;64573;50.328;15.014;2022-10-28T10:08:35;99899.25;;;16.15;67.42
75895;BME280;64573;50.328;15.014;2022-10-28T10:11:04;99895.22;;;16.11;67.88
75895;BME280;64573;50.328;15.014;2022-10-28T10:13:40;99893.44;;;17.09;65.18
75895;BME280;64573;50.328;15.014;2022-10-28T10:20:59;99888.59;;;19.18;59.18
75895;BME280;64573;50.328;15.014;2022-10-28T10:23:31;99887.16;;;19.15;58.17
75895;BME280;64573;50.328;15.014;2022-10-28T10:28:24;99891.47;;;18.71;59.06
75895;BME280;64573;50.328;15.014;2022-10-28T10:30:53;99892.13;;;19.25;57.93
75895;BME280;64573;50.328;15.014;2022-10-28T10:33:49;99890.22;;;18.54;60.26
75895;BME280;64573;50.328;15.014;2022-10-28T10:36:17;99882.69;;;18.56;59.81
75895;BME280;64573;50.328;15.014;2022-10-28T10:38:47;99878.38;;;19.20;58.55
75895;BME280;64573;50.328;15.014;2022-10-28T10:41:41;99876.00;;;19.30;57.49
75895;BME280;64573;50.328;15.014;2022-10-28T10:46:44;99887.47;;;18.67;58.91
75895;BME280;64573;50.328;15.014;2022-10-28T10:49:14;99882.06;;;18.28;60.08
75895;BME280;64573;50.328;15.014;2022-10-28T10:52:12;99880.19;;;18.55;59.46
75895;BME280;64573;50.328;15.014;2022-10-28T10:54:46;99878.88;;;17.71;62.98
75895;BME280;64573;50.328;15.014;2022-10-28T10:57:19;99876.41;;;18.42;60.49
75895;BME280;64573;50.328;15.014;2022-10-28T10:59:48;99870.94;;;19.40;57.94
75895;BME280;64573;50.328;15.014;2022-10-28T11:02:36;99863.31;;;19.94;55.84
75895;BME280;64573;50.328;15.014;2022-10-28T11:05:06;99863.75;;;20.41;54.88
75895;BME280;64573;50.328;15.014;2022-10-28T11:09:58;99856.41;;;20.23;54.56
75895;BME280;64573;50.328;15.014;2022-10-28T11:19:57;99831.75;;;19.48;57.62
75895;BME280;64573;50.328;15.014;2022-10-28T12:03:45;99780.19;;;20.59;54.78
75895;BME280;64573;50.328;15.014;2022-10-28T12:13:53;99784.97;;;20.82;52.73
75895;BME280;64573;50.328;15.014;2022-10-28T12:19:01;99777.41;;;21.14;51.96
75895;BME280;64573;50.328;15.014;2022-10-28T12:23:56;99761.56;;;21.23;51.76
75895;BME280;64573;50.328;15.014;2022-10-28T12:26:36;99767.88;;;21.05;53.06
75895;BME280;64573;50.328;15.014;2022-10-28T12:29:29;99756.34;;;21.63;50.98
75895;BME280;64573;50.328;15.014;2022-10-28T12:39:27;99754.91;;;20.52;53.71
75895;BME280;64573;50.328;15.014;2022-10-28T12:44:32;99751.97;;;18.91;58.59
75895;BME280;64573;50.328;15.014;2022-10-28T12:47:13;99754.00;;;19.02;58.89
75895;BME280;64573;50.328;15.014;2022-10-28T12:57:19;99738.69;;;19.96;55.33
75895;BME280;64573;50.328;15.014;2022-10-28T12:59:53;99730.91;;;21.09;52.28
75895;BME280;64573;50.328;15.014;2022-10-28T13:24:32;99737.41;;;22.03;50.06
75895;BME280;64573;50.328;15.014;2022-10-28T13:26:55;99725.59;;;21.56;50.99
75895;BME280;64573;50.328;15.014;2022-10-28T13:29:24;99730.91;;;21.39;51.84
75895;BME280;64573;50.328;15.014;2022-10-28T13:31:51;99733.63;;;20.61;53.04
75895;BME280;64573;50.328;15.014;2022-10-28T13:34:20;99726.72;;;20.77;52.56
75895;BME280;64573;50.328;15.014;2022-10-28T13:36:55;99733.78;;;19.23;57.48
75895;BME280;64573;50.328;15.014;2022-10-28T13:39:41;99731.25;;;19.28;57.44
75895;BME280;64573;50.328;15.014;2022-10-28T13:44:59;99712.66;;;18.93;58.40
75895;BME280;64573;50.328;15.014;2022-10-28T13:47:26;99706.50;;;18.66;59.27
75895;BME280;64573;50.328;15.014;2022-10-28T13:52:36;99717.28;;;18.15;60.95
75895;BME280;64573;50.328;15.014;2022-10-28T13:57:46;99717.56;;;17.54;62.96
75895;BME280;64573;50.328;15.014;2022-10-28T14:02:51;99717.94;;;17.37;63.89
75895;BME280;64573;50.328;15.014;2022-10-28T14:05:22;99710.00;;;17.29;63.90
75895;BME280;64573;50.328;15.014;2022-10-28T14:10:27;99709.38;;;17.27;64.26
75895;BME280;64573;50.328;15.014;2022-10-28T14:13:16;99714.63;;;17.55;63.75
75895;BME280;64573;50.328;15.014;2022-10-28T14:15:43;99709.59;;;17.65;63.48
75895;BME280;64573;50.328;15.014;2022-10-28T14:33:20;99703.53;;;17.17;65.97
75895;BME280;64573;50.328;15.014;2022-10-28T14:35:47;99701.84;;;17.16;65.76
75895;BME280;64573;50.328;15.014;2022-10-28T14:40:51;99700.34;;;16.94;66.23
75895;BME280;64573;50.328;15.014;2022-10-28T14:46:08;99706.38;;;16.83;67.40
75895;BME280;64573;50.328;15.014;2022-10-28T14:48:49;99703.66;;;16.76;67.56
75895;BME280;64573;50.328;15.014;2022-10-28T14:53:41;99701.91;;;16.62;68.38
75895;BME280;64573;50.328;15.014;2022-10-28T14:56:15;99698.31;;;16.54;68.56
75895;BME280;64573;50.328;15.014;2022-10-28T15:06:24;99694.19;;;16.65;68.54
75895;BME280;64573;50.328;15.014;2022-10-28T15:08:50;99688.56;;;16.60;68.04
75895;BME280;64573;50.328;15.014;2022-10-28T15:13:52;99691.84;;;16.49;68.67
75895;BME280;64573;50.328;15.014;2022-10-28T15:16:22;99691.25;;;16.53;68.54
75895;BME280;64573;50.328;15.014;2022-10-28T15:18:51;99687.66;;;16.40;68.78
75895;BME280;64573;50.328;15.014;2022-10-28T15:21:19;99691.75;;;16.22;69.39
75895;BME280;64573;50.328;15.014;2022-10-28T15:24:01;99689.00;;;16.16;69.67
75895;BME280;64573;50.328;15.014;2022-10-28T15:26:27;99678.28;;;16.01;69.42
75895;BME280;64573;50.328;15.014;2022-10-28T15:28:52;99680.78;;;16.03;69.55
75895;BME280;64573;50.328;15.014;2022-10-28T15:31:19;99681.59;;;15.96;69.76
75895;BME280;64573;50.328;15.014;2022-10-28T15:33:45;99686.13;;;15.89;69.94
75895;BME280;64573;50.328;15.014;2022-10-28T15:36:21;99688.34;;;15.79;70.47
75895;BME280;64573;50.328;15.014;2022-10-28T15:38:49;99692.88;;;15.72;70.85
75895;BME280;64573;50.328;15.014;2022-10-28T15:46:24;99688.63;;;15.41;72.05
75895;BME280;64573;50.328;15.014;2022-10-28T15:48:51;99692.56;;;15.39;72.18
75895;BME280;64573;50.328;15.014;2022-10-28T15:51:19;99690.66;;;15.33;72.29
75895;BME280;64573;50.328;15.014;2022-10-28T15:53:45;99688.56;;;15.35;72.49
75895;BME280;64573;50.328;15.014;2022-10-28T15:56:25;99682.94;;;15.30;72.66
75895;BME280;64573;50.328;15.014;2022-10-28T15:59:17;99690.84;;;15.31;72.48
75895;BME280;64573;50.328;15.014;2022-10-28T16:01:43;99685.66;;;15.30;73.04
75895;BME280;64573;50.328;15.014;2022-10-28T16:06:38;99694.78;;;15.29;73.55
75895;BME280;64573;50.328;15.014;2022-10-28T16:16:49;99675.47;;;15.10;75.15
75895;BME280;64573;50.328;15.014;2022-10-28T16:19:27;99683.31;;;15.05;75.27
75895;BME280;64573;50.328;15.014;2022-10-28T16:21:53;99678.44;;;14.94;75.73
75895;BME280;64573;50.328;15.014;2022-10-28T16:24:19;99674.56;;;14.82;75.77
75895;BME280;64573;50.328;15.014;2022-10-28T16:26:44;99672.69;;;14.82;76.03
75895;BME280;64573;50.328;15.014;2022-10-28T16:29:09;99678.38;;;14.87;76.02
75895;BME280;64573;50.328;15.014;2022-10-28T16:31:35;99679.97;;;14.82;75.92
75895;BME280;64573;50.328;15.014;2022-10-28T16:34:00;99685.28;;;14.75;75.97
75895;BME280;64573;50.328;15.014;2022-10-28T16:36:25;99681.47;;;14.70;76.55
75895;BME280;64573;50.328;15.014;2022-10-28T16:38:53;99693.13;;;14.70;76.31
75895;BME280;64573;50.328;15.014;2022-10-28T16:41:19;99677.13;;;14.69;76.47
75895;BME280;64573;50.328;15.014;2022-10-28T16:43:45;99688.50;;;14.64;76.72
75895;BME280;64573;50.328;15.014;2022-10-28T16:46:11;99685.97;;;14.62;76.60
75895;BME280;64573;50.328;15.014;2022-10-28T16:48:37;99679.66;;;14.55;76.80
75895;BME280;64573;50.328;15.014;2022-10-28T16:53:28;99686.09;;;14.40;77.14
75895;BME280;64573;50.328;15.014;2022-10-28T16:55:54;99688.34;;;14.36;77.56
75895;BME280;64573;50.328;15.014;2022-10-28T16:58:27;99688.13;;;14.38;77.54
75895;BME280;64573;50.328;15.014;2022-10-28T17:00:54;99699.31;;;14.34;77.59
75895;BME280;64573;50.328;15.014;2022-10-28T17:03:20;99698.00;;;14.30;77.68
75895;BME280;64573;50.328;15.014;2022-10-28T17:05:46;99701.94;;;14.28;77.61
75895;BME280;64573;50.328;15.014;2022-10-28T17:08:11;99701.94;;;14.28;77.51
75895;BME280;64573;50.328;15.014;2022-10-28T17:10:38;99703.22;;;14.32;77.37
75895;BME280;64573;50.328;15.014;2022-10-28T17:13:05;99685.84;;;14.34;77.37
75895;BME280;64573;50.328;15.014;2022-10-28T17:18:02;99685.00;;;14.34;76.96
75895;BME280;64573;50.328;15.014;2022-10-28T17:20:28;99691.97;;;14.43;76.27
75895;BME280;64573;50.328;15.014;2022-10-28T17:22:53;99690.00;;;14.37;76.59
75895;BME280;64573;50.328;15.014;2022-10-28T17:25:19;99685.16;;;14.32;76.68
75895;BME280;64573;50.328;15.014;2022-10-28T17:27:47;99676.44;;;14.30;76.51
75895;BME280;64573;50.328;15.014;2022-10-28T17:30:17;99688.44;;;14.28;76.32
75895;BME280;64573;50.328;15.014;2022-10-28T17:32:43;99689.19;;;14.22;76.77
75895;BME280;64573;50.328;15.014;2022-10-28T17:35:09;99681.34;;;14.12;77.05
75895;BME280;64573;50.328;15.014;2022-10-28T17:37:35;99675.53;;;14.08;76.86
75895;BME280;64573;50.328;15.014;2022-10-28T17:40:00;99671.50;;;14.04;77.29
75895;BME280;64573;50.328;15.014;2022-10-28T17:42:27;99674.16;;;13.98;77.57
75895;BME280;64573;50.328;15.014;2022-10-28T17:44:52;99672.28;;;13.98;77.77
75895;BME280;64573;50.328;15.014;2022-10-28T17:47:18;99672.63;;;13.95;77.89
75895;BME280;64573;50.328;15.014;2022-10-28T17:49:43;99680.44;;;13.90;78.42
75895;BME280;64573;50.328;15.014;2022-10-28T17:54:37;99678.84;;;13.81;78.46
75895;BME280;64573;50.328;15.014;2022-10-28T17:57:03;99676.34;;;13.79;79.01
75895;BME280;64573;50.328;15.014;2022-10-28T17:59:28;99701.84;;;13.77;78.34
75895;BME280;64573;50.328;15.014;2022-10-28T18:01:54;99674.59;;;13.72;78.55
75895;BME280;64573;50.328;15.014;2022-10-28T18:04:19;99670.75;;;13.66;78.49